Time;durP1;ratioP1;P1;durP2;ratioP2;P2;SDS_P1;SDS_P2;PMS_P1;PMS_P2;Temp;Humidity;BMP_temperature;BMP_pressure;BME280_temperature;BME280_humidity;BME280_pressure;Samples;Min_cycle;Max_cycle;Signal;HPM_P1;HPM_P2
2022/01/24 00:01:05;;;;;;;;;;;4.50;99.90;;;;;;4949416;28;20069;-68
2022/01/24 00:03:32;;;;;;;;;;;4.50;99.90;;;;;;4949406;28;21194;-70
2022/01/24 00:05:59;;;;;;;;;;;4.40;99.90;;;;;;4949784;28;20182;-71
2022/01/24 00:08:28;;;;;;;;;;;4.40;99.90;;;;;;4950491;28;20069;-71
2022/01/24 00:10:55;;;;;;;;;;;4.40;99.90;;;;;;4949854;28;20201;-71
2022/01/24 00:16:27;;;;;;;;;;;4.40;99.90;;;;;;4935926;28;20057;-70
2022/01/24 00:27:08;;;;;;;;;;;4.30;99.90;;;;;;4950881;28;20093;-70
2022/01/24 00:29:35;;;;;;;;;;;4.30;99.90;;;;;;4949171;28;20179;-71
2022/01/24 00:32:04;;;;;;;;;;;4.30;99.90;;;;;;4949680;28;20172;-70
2022/01/24 00:34:32;;;;;;;;;;;4.20;99.90;;;;;;4949492;28;21198;-70
2022/01/24 00:37:00;;;;;;;;;;;4.20;99.90;;;;;;4950049;28;20118;-71
2022/01/24 00:39:27;;;;;;;;;;;4.20;99.90;;;;;;4948943;28;20098;-70
2022/01/24 00:42:06;;;;;;;;;;;4.10;99.90;;;;;;4949764;28;20179;-71
2022/01/24 00:44:51;;;;;;;;;;;4.10;99.90;;;;;;4949248;28;21146;-71
2022/01/24 00:47:25;;;;;;;;;;;4.00;99.90;;;;;;4949813;28;20061;-71
2022/01/24 00:55:18;;;;;;;;;;;3.80;99.90;;;;;;4949558;28;20087;-71
2022/01/24 00:57:45;;;;;;;;;;;3.70;99.90;;;;;;4949508;28;20160;-71
2022/01/24 01:00:13;;;;;;;;;;;3.60;99.90;;;;;;4947791;28;20142;-70
2022/01/24 01:02:42;;;;;;;;;;;3.50;99.90;;;;;;4948507;28;20078;-70
2022/01/24 01:05:23;;;;;;;;;;;3.40;99.90;;;;;;4948382;28;20068;-71
2022/01/24 01:07:55;;;;;;;;;;;3.20;99.90;;;;;;4949431;28;20080;-71
2022/01/24 01:18:39;;;;;;;;;;;2.90;99.90;;;;;;4932753;28;20088;-71
2022/01/24 01:21:10;;;;;;;;;;;2.80;99.90;;;;;;4947856;28;20060;-70
2022/01/24 01:23:40;;;;;;;;;;;2.70;99.90;;;;;;4949055;28;21092;-72
2022/01/24 01:26:12;;;;;;;;;;;2.60;99.90;;;;;;4948816;28;20068;-71
2022/01/24 01:28:43;;;;;;;;;;;2.40;99.90;;;;;;4948451;28;21152;-70
2022/01/24 01:31:18;;;;;;;;;;;2.30;99.90;;;;;;4948202;28;20070;-71
2022/01/24 01:33:58;;;;;;;;;;;2.20;99.90;;;;;;4948333;28;20084;-71
2022/01/24 01:36:40;;;;;;;;;;;2.20;99.90;;;;;;4948989;28;20076;-70
2022/01/24 01:53:19;;;;;;;;;;;1.80;99.90;;;;;;4964554;28;20076;-71
2022/01/24 01:55:46;;;;;;;;;;;1.70;99.90;;;;;;4947833;28;20501;-71
2022/01/24 01:58:15;;;;;;;;;;;1.70;99.90;;;;;;4948050;28;20060;-71
2022/01/24 02:00:43;;;;;;;;;;;1.60;99.90;;;;;;4946799;28;20158;-71
2022/01/24 02:03:10;;;;;;;;;;;1.60;99.90;;;;;;4947884;28;21278;-71
2022/01/24 02:05:39;;;;;;;;;;;1.50;99.90;;;;;;4947503;28;20076;-71
2022/01/24 02:08:06;;;;;;;;;;;1.50;99.90;;;;;;4948180;28;20085;-71
2022/01/24 02:10:36;;;;;;;;;;;1.50;99.90;;;;;;4946420;28;21086;-70
2022/01/24 02:13:04;;;;;;;;;;;1.50;99.90;;;;;;4947596;28;20152;-71
2022/01/24 02:15:40;;;;;;;;;;;1.50;99.90;;;;;;4948729;28;20114;-71
2022/01/24 02:18:13;;;;;;;;;;;1.40;99.90;;;;;;4948400;28;20069;-71
2022/01/24 02:21:07;;;;;;;;;;;1.30;99.90;;;;;;4947405;28;20078;-71
2022/01/24 02:23:41;;;;;;;;;;;1.30;99.90;;;;;;4946029;28;20083;-71
2022/01/24 02:26:11;;;;;;;;;;;1.20;99.90;;;;;;4947440;28;20068;-71
2022/01/24 02:28:54;;;;;;;;;;;1.20;99.90;;;;;;4947035;28;21104;-70
2022/01/24 02:31:37;;;;;;;;;;;1.10;99.90;;;;;;4948013;28;20060;-71
2022/01/24 02:34:05;;;;;;;;;;;1.00;99.90;;;;;;4947587;28;20076;-71
2022/01/24 02:36:32;;;;;;;;;;;1.00;99.90;;;;;;4947975;28;20093;-71
2022/01/24 02:39:19;;;;;;;;;;;1.10;99.90;;;;;;4946383;28;20081;-71
2022/01/24 02:49:56;;;;;;;;;;;1.00;99.90;;;;;;4923115;28;20064;-71
2022/01/24 02:52:25;;;;;;;;;;;1.00;99.90;;;;;;4947049;28;21210;-71
2022/01/24 02:54:54;;;;;;;;;;;1.00;99.90;;;;;;4946561;28;20067;-71
2022/01/24 02:57:21;;;;;;;;;;;0.90;99.90;;;;;;4950937;28;20085;-71
2022/01/24 02:59:48;;;;;;;;;;;0.90;99.90;;;;;;4950032;28;20303;-70
2022/01/24 03:02:16;;;;;;;;;;;0.90;99.90;;;;;;4951212;28;20074;-70
2022/01/24 03:04:43;;;;;;;;;;;0.90;99.90;;;;;;4951314;28;20095;-69
2022/01/24 03:07:10;;;;;;;;;;;0.80;99.90;;;;;;4950999;28;20083;-70
2022/01/24 03:09:37;;;;;;;;;;;0.80;99.90;;;;;;4950154;28;20158;-70
2022/01/24 03:12:11;;;;;;;;;;;0.70;99.90;;;;;;4951123;28;20073;-70
2022/01/24 03:14:38;;;;;;;;;;;0.60;99.90;;;;;;4951526;28;20139;-70
2022/01/24 03:17:06;;;;;;;;;;;0.60;99.90;;;;;;4951313;28;20101;-70
2022/01/24 03:19:34;;;;;;;;;;;0.50;99.90;;;;;;4950634;28;20135;-70
2022/01/24 03:22:01;;;;;;;;;;;0.40;99.90;;;;;;4950969;28;21173;-70
2022/01/24 03:24:28;;;;;;;;;;;0.40;99.90;;;;;;4950532;28;20090;-70
2022/01/24 03:26:55;;;;;;;;;;;0.40;99.90;;;;;;4950330;28;20078;-70
2022/01/24 03:29:24;;;;;;;;;;;0.30;99.90;;;;;;4950048;28;21161;-70
2022/01/24 03:31:51;;;;;;;;;;;0.30;99.90;;;;;;4951215;28;21058;-70
2022/01/24 03:34:18;;;;;;;;;;;0.30;99.90;;;;;;4950793;28;20328;-71
2022/01/24 03:36:45;;;;;;;;;;;0.20;99.90;;;;;;4950842;28;20083;-70
2022/01/24 03:39:12;;;;;;;;;;;0.20;99.90;;;;;;4949286;28;21160;-70
2022/01/24 03:41:40;;;;;;;;;;;0.10;99.90;;;;;;4951318;28;20704;-70
2022/01/24 03:44:08;;;;;;;;;;;0.10;99.90;;;;;;4950528;28;21255;-70
2022/01/24 03:46:49;;;;;;;;;;;0.10;99.90;;;;;;4950930;28;20353;-70
2022/01/24 03:52:03;;;;;;;;;;;0.00;99.90;;;;;;4948017;28;20105;-70
2022/01/24 03:54:30;;;;;;;;;;;-0.10;99.90;;;;;;4949661;28;20166;-69
2022/01/24 03:56:57;;;;;;;;;;;-0.10;99.90;;;;;;4960805;28;21120;-69
2022/01/24 03:59:24;;;;;;;;;;;-0.20;99.90;;;;;;4969010;28;21053;-70
2022/01/24 04:01:53;;;;;;;;;;;-0.20;99.90;;;;;;4970281;28;21060;-69
2022/01/24 04:04:20;;;;;;;;;;;-0.20;99.90;;;;;;4969809;28;20276;-70
2022/01/24 04:06:48;;;;;;;;;;;-0.20;99.90;;;;;;4969205;28;20091;-70
2022/01/24 04:09:16;;;;;;;;;;;-0.20;99.90;;;;;;4968272;28;20068;-70
2022/01/24 04:11:43;;;;;;;;;;;-0.20;99.90;;;;;;4969987;28;21068;-69
2022/01/24 04:14:28;;;;;;;;;;;-0.20;99.90;;;;;;4969628;28;20087;-69
2022/01/24 04:17:08;;;;;;;;;;;-0.10;99.90;;;;;;4969916;28;21106;-70
2022/01/24 04:22:23;;;;;;;;;;;0.00;99.90;;;;;;4985980;28;21179;-69
2022/01/24 04:24:58;;;;;;;;;;;0.00;99.90;;;;;;4968896;28;20059;-70
2022/01/24 04:27:25;;;;;;;;;;;0.00;99.90;;;;;;4970129;28;20229;-70
2022/01/24 04:29:53;;;;;;;;;;;0.10;99.90;;;;;;4968400;28;20069;-70
2022/01/24 04:32:21;;;;;;;;;;;0.10;99.90;;;;;;4969628;28;20068;-70
2022/01/24 04:34:49;;;;;;;;;;;0.10;99.90;;;;;;4969263;28;20069;-70
2022/01/24 04:37:16;;;;;;;;;;;0.20;99.90;;;;;;4968819;28;20092;-68
2022/01/24 04:39:44;;;;;;;;;;;0.30;99.90;;;;;;4968533;28;20069;-69
2022/01/24 04:42:16;;;;;;;;;;;0.30;99.90;;;;;;4969673;28;20060;-70
2022/01/24 04:44:53;;;;;;;;;;;0.30;99.90;;;;;;4969366;28;20077;-69
2022/01/24 04:47:28;;;;;;;;;;;0.20;99.90;;;;;;4969375;28;20268;-70
2022/01/24 04:52:52;;;;;;;;;;;0.10;99.90;;;;;;4985556;28;20057;-70
2022/01/24 04:55:19;;;;;;;;;;;0.00;99.90;;;;;;4968666;28;20071;-70
2022/01/24 04:57:47;;;;;;;;;;;0.00;99.90;;;;;;4968493;28;20091;-68
2022/01/24 05:00:14;;;;;;;;;;;-0.10;99.90;;;;;;4967906;28;20076;-70
2022/01/24 05:02:43;;;;;;;;;;;-0.10;99.90;;;;;;4968545;28;20100;-69
2022/01/24 05:05:15;;;;;;;;;;;-0.20;99.90;;;;;;4968986;28;20093;-70
2022/01/24 05:07:42;;;;;;;;;;;-0.20;99.90;;;;;;4968712;28;20061;-69
2022/01/24 05:10:17;;;;;;;;;;;-0.20;99.90;;;;;;4967870;28;20195;-69
2022/01/24 05:23:43;;;;;;;;;;;-0.40;99.90;;;;;;4960668;28;20085;-70
2022/01/24 05:26:11;;;;;;;;;;;-0.40;99.90;;;;;;4969038;28;20068;-70
2022/01/24 05:28:38;;;;;;;;;;;-0.40;99.90;;;;;;4968572;28;20187;-69
2022/01/24 05:31:05;;;;;;;;;;;-0.50;99.90;;;;;;4967949;28;20303;-70
2022/01/24 05:33:34;;;;;;;;;;;-0.50;99.90;;;;;;4984645;28;20070;-69
2022/01/24 05:36:02;;;;;;;;;;;-0.50;99.90;;;;;;4968669;28;21169;-70
2022/01/24 05:38:29;;;;;;;;;;;-0.50;99.90;;;;;;4968590;28;20074;-70
2022/01/24 05:40:57;;;;;;;;;;;-0.40;99.90;;;;;;4967879;28;21156;-70
2022/01/24 05:43:24;;;;;;;;;;;-0.40;99.90;;;;;;4968683;28;21138;-70
2022/01/24 05:45:51;;;;;;;;;;;-0.30;99.90;;;;;;4968440;28;20198;-70
2022/01/24 05:48:18;;;;;;;;;;;-0.30;99.90;;;;;;4957172;28;20086;-70
2022/01/24 05:50:47;;;;;;;;;;;-0.30;99.90;;;;;;4949342;28;20172;-71
2022/01/24 05:53:14;;;;;;;;;;;-0.20;99.90;;;;;;4947755;28;21031;-71
2022/01/24 05:55:41;;;;;;;;;;;-0.20;99.90;;;;;;4949245;28;20077;-70
2022/01/24 05:58:09;;;;;;;;;;;-0.20;99.90;;;;;;4948485;28;20522;-70
2022/01/24 06:00:36;;;;;;;;;;;-0.20;99.90;;;;;;4947708;28;20180;-70
2022/01/24 06:03:03;;;;;;;;;;;-0.20;99.90;;;;;;4942595;28;20350;-69
2022/01/24 06:05:30;;;;;;;;;;;-0.30;99.90;;;;;;4978169;28;20078;-69
2022/01/24 06:07:59;;;;;;;;;;;-0.30;99.90;;;;;;4947982;28;20163;-70
2022/01/24 06:10:26;;;;;;;;;;;-0.40;99.90;;;;;;4947640;28;20067;-75
2022/01/24 06:12:53;;;;;;;;;;;-0.40;99.90;;;;;;4948232;28;20060;-71
2022/01/24 06:15:20;;;;;;;;;;;-0.40;99.90;;;;;;4947833;28;21094;-70
2022/01/24 06:17:47;;;;;;;;;;;-0.40;99.90;;;;;;4948407;28;20052;-70
2022/01/24 06:20:14;;;;;;;;;;;-0.40;99.90;;;;;;4947635;28;20086;-70
2022/01/24 06:22:41;;;;;;;;;;;-0.50;99.90;;;;;;4947712;28;20052;-69
2022/01/24 06:25:10;;;;;;;;;;;-0.60;99.90;;;;;;5021552;23;20074;-68
2022/01/24 06:27:37;;;;;;;;;;;-0.70;99.90;;;;;;5020603;28;20068;-68
2022/01/24 06:30:05;;;;;;;;;;;-0.70;99.90;;;;;;5020007;28;20060;-68
2022/01/24 06:32:32;;;;;;;;;;;-0.70;99.90;;;;;;5010103;28;21196;-70
2022/01/24 06:34:59;;;;;;;;;;;-0.70;99.90;;;;;;4986696;28;20055;-70
2022/01/24 06:37:27;;;;;;;;;;;-0.80;99.90;;;;;;4998756;28;21118;-71
2022/01/24 06:39:54;;;;;;;;;;;-0.80;99.90;;;;;;5006390;28;20051;-70
2022/01/24 06:42:23;;;;;;;;;;;-0.80;99.90;;;;;;5006422;28;20184;-70
2022/01/24 06:44:50;;;;;;;;;;;-0.70;99.90;;;;;;5007374;28;20059;-76
2022/01/24 06:47:18;;;;;;;;;;;-0.70;99.90;;;;;;4998370;28;21122;-70
2022/01/24 06:49:45;;;;;;;;;;;-0.70;99.90;;;;;;4986380;28;21145;-70
2022/01/24 06:52:13;;;;;;;;;;;-0.70;99.90;;;;;;4987812;28;20061;-70
2022/01/24 06:54:41;;;;;;;;;;;-0.70;99.90;;;;;;4985121;28;20068;-70
2022/01/24 06:57:09;;;;;;;;;;;-0.70;99.90;;;;;;4986608;28;20060;-71
2022/01/24 06:59:38;;;;;;;;;;;-0.70;99.90;;;;;;4986429;28;21049;-70
2022/01/24 07:02:05;;;;;;;;;;;-0.80;99.90;;;;;;4987388;28;20096;-71
2022/01/24 07:04:33;;;;;;;;;;;-0.80;99.90;;;;;;4987639;28;21013;-70
2022/01/24 07:07:00;;;;;;;;;;;-0.90;99.90;;;;;;4986787;28;20278;-68
2022/01/24 07:09:27;;;;;;;;;;;-1.00;99.90;;;;;;4987982;28;21112;-68
2022/01/24 07:11:54;;;;;;;;;;;-1.00;99.90;;;;;;4982386;28;20068;-68
2022/01/24 07:14:21;;;;;;;;;;;-1.00;99.90;;;;;;4988254;28;20061;-69
2022/01/24 07:17:13;;;;;;;;;;;-1.10;99.90;;;;;;4988968;28;21248;-70
2022/01/24 07:19:40;;;;;;;;;;;-1.10;99.90;;;;;;4988033;28;20052;-70
2022/01/24 07:22:08;;;;;;;;;;;-1.20;99.90;;;;;;4988544;28;21136;-69
2022/01/24 07:24:35;;;;;;;;;;;-1.20;99.90;;;;;;4983983;28;21032;-70
2022/01/24 07:27:03;;;;;;;;;;;-1.20;99.90;;;;;;4984585;28;20514;-70
2022/01/24 07:29:30;;;;;;;;;;;-1.30;99.90;;;;;;4985847;28;20107;-70
2022/01/24 07:31:59;;;;;;;;;;;-1.30;99.90;;;;;;4978705;28;20086;-69
2022/01/24 07:34:26;;;;;;;;;;;-1.30;99.90;;;;;;4987064;28;20150;-69
2022/01/24 07:36:55;;;;;;;;;;;-1.30;99.90;;;;;;4987701;28;20069;-77
2022/01/24 07:39:23;;;;;;;;;;;-1.40;99.90;;;;;;4982024;28;20256;-70
2022/01/24 07:41:51;;;;;;;;;;;-1.40;99.90;;;;;;5002311;28;20091;-71
2022/01/24 07:44:20;;;;;;;;;;;-1.40;99.90;;;;;;5006304;28;20058;-70
2022/01/24 07:46:47;;;;;;;;;;;-1.30;99.90;;;;;;4994270;28;20061;-70
2022/01/24 07:49:16;;;;;;;;;;;-1.30;99.90;;;;;;4991075;28;20141;-70
2022/01/24 07:51:43;;;;;;;;;;;-1.20;99.90;;;;;;4992646;28;20051;-70
2022/01/24 07:54:10;;;;;;;;;;;-1.20;99.90;;;;;;4991716;28;20051;-70
2022/01/24 07:56:37;;;;;;;;;;;-1.20;99.90;;;;;;4991844;28;20068;-70
2022/01/24 07:59:05;;;;;;;;;;;-1.20;99.90;;;;;;4991207;28;20094;-70
2022/01/24 08:01:32;;;;;;;;;;;-1.10;99.90;;;;;;4992280;28;21239;-70
2022/01/24 08:03:59;;;;;;;;;;;-1.10;99.90;;;;;;4991725;28;20084;-70
2022/01/24 08:06:28;;;;;;;;;;;-1.00;99.90;;;;;;4992126;28;20056;-70
2022/01/24 08:08:55;;;;;;;;;;;-1.00;99.90;;;;;;4990470;28;21077;-69
2022/01/24 08:11:22;;;;;;;;;;;-1.00;99.90;;;;;;4992594;28;20148;-70
2022/01/24 08:13:51;;;;;;;;;;;-0.90;99.90;;;;;;4992228;28;20088;-70
2022/01/24 08:16:18;;;;;;;;;;;-0.80;99.90;;;;;;4991745;28;20066;-70
2022/01/24 08:18:50;;;;;;;;;;;-0.80;99.90;;;;;;4990812;28;21043;-71
2022/01/24 08:21:17;;;;;;;;;;;-0.70;99.90;;;;;;4990923;28;20096;-69
2022/01/24 08:23:46;;;;;;;;;;;-0.70;99.90;;;;;;4978048;28;20069;-70
2022/01/24 08:26:13;;;;;;;;;;;-0.60;99.90;;;;;;4991616;28;21204;-69
2022/01/24 08:28:40;;;;;;;;;;;-0.50;99.90;;;;;;4991278;28;20068;-69
2022/01/24 08:31:07;;;;;;;;;;;-0.50;99.90;;;;;;4991515;28;20066;-70
2022/01/24 08:33:34;;;;;;;;;;;-0.40;99.90;;;;;;4990581;28;20059;-70
2022/01/24 08:36:02;;;;;;;;;;;-0.30;99.90;;;;;;4990860;28;20060;-70
2022/01/24 08:38:33;;;;;;;;;;;-0.20;99.90;;;;;;4990911;28;20051;-70
2022/01/24 08:41:08;;;;;;;;;;;-0.20;99.90;;;;;;4987502;28;20177;-70
2022/01/24 08:43:51;;;;;;;;;;;-0.10;99.90;;;;;;4990513;28;20052;-69
2022/01/24 08:46:18;;;;;;;;;;;0.00;99.90;;;;;;4990148;28;20152;-69
2022/01/24 08:48:46;;;;;;;;;;;0.10;99.90;;;;;;4990019;28;20061;-70
2022/01/24 08:51:14;;;;;;;;;;;0.20;99.90;;;;;;4990798;28;21116;-70
2022/01/24 08:53:41;;;;;;;;;;;0.30;99.90;;;;;;4990216;28;20073;-70
2022/01/24 08:56:11;;;;;;;;;;;0.30;99.90;;;;;;4991211;28;20162;-69
2022/01/24 08:58:39;;;;;;;;;;;0.50;99.90;;;;;;4991074;28;20051;-70
2022/01/24 09:01:06;;;;;;;;;;;0.60;99.90;;;;;;4990804;28;20141;-70
2022/01/24 09:03:39;;;;;;;;;;;0.70;99.90;;;;;;4990878;28;21160;-70
2022/01/24 09:06:06;;;;;;;;;;;0.80;99.90;;;;;;4991131;28;20051;-69
2022/01/24 09:08:34;;;;;;;;;;;0.90;99.90;;;;;;4990841;28;20068;-69
2022/01/24 09:11:01;;;;;;;;;;;1.00;99.90;;;;;;4989602;28;20077;-70
2022/01/24 09:13:32;;;;;;;;;;;1.10;99.90;;;;;;4990743;28;20059;-69
2022/01/24 09:16:00;;;;;;;;;;;1.20;99.90;;;;;;4991301;28;20140;-69
2022/01/24 09:18:28;;;;;;;;;;;1.40;99.90;;;;;;4991397;28;20051;-68
2022/01/24 09:20:55;;;;;;;;;;;1.40;99.90;;;;;;4990789;28;20160;-69
2022/01/24 09:23:23;;;;;;;;;;;1.50;99.90;;;;;;4990851;28;21248;-67
2022/01/24 09:25:51;;;;;;;;;;;1.70;99.90;;;;;;4990136;28;20065;-71
2022/01/24 09:28:19;;;;;;;;;;;1.80;99.90;;;;;;4991266;28;21186;-68
2022/01/24 09:30:48;;;;;;;;;;;2.00;99.90;;;;;;4990062;28;21138;-69
2022/01/24 09:33:15;;;;;;;;;;;2.10;99.90;;;;;;4990622;28;20052;-67
2022/01/24 09:35:43;;;;;;;;;;;2.20;99.90;;;;;;4990523;28;20153;-68
2022/01/24 09:38:10;;;;;;;;;;;2.30;99.90;;;;;;4990250;28;20052;-69
2022/01/24 09:40:38;;;;;;;;;;;2.40;99.90;;;;;;4988359;28;21149;-69
2022/01/24 09:43:05;;;;;;;;;;;2.50;99.90;;;;;;4988876;28;21176;-69
2022/01/24 09:45:33;;;;;;;;;;;2.70;99.90;;;;;;4990215;28;21176;-69
2022/01/24 09:48:03;;;;;;;;;;;2.80;99.90;;;;;;4991158;28;20170;-69
2022/01/24 09:50:30;;;;;;;;;;;2.90;99.90;;;;;;4990404;28;20067;-67
2022/01/24 09:52:58;;;;;;;;;;;3.00;99.90;;;;;;4991209;28;21114;-69
2022/01/24 09:55:26;;;;;;;;;;;3.20;99.90;;;;;;4989043;28;20059;-70
2022/01/24 09:57:53;;;;;;;;;;;3.30;99.90;;;;;;4990166;28;20211;-70
2022/01/24 10:00:22;;;;;;;;;;;3.50;99.90;;;;;;4988866;28;20096;-70
2022/01/24 10:02:50;;;;;;;;;;;3.60;99.90;;;;;;4990019;28;20058;-69
2022/01/24 10:05:21;;;;;;;;;;;3.80;99.90;;;;;;4988829;28;21121;-69
2022/01/24 10:07:52;;;;;;;;;;;3.90;99.90;;;;;;4988686;28;20059;-70
2022/01/24 10:10:34;;;;;;;;;;;4.10;99.90;;;;;;4983197;28;21052;-70
2022/01/24 10:19:10;;;;;;;;;;;4.60;99.90;;;;;;4968229;28;20048;-69
2022/01/24 10:21:40;;;;;;;;;;;4.70;99.90;;;;;;4986408;28;21097;-69
2022/01/24 10:24:08;;;;;;;;;;;4.80;99.90;;;;;;4969036;28;21251;-69
2022/01/24 10:26:35;;;;;;;;;;;4.90;99.90;;;;;;4985579;28;20052;-69
2022/01/24 10:29:02;;;;;;;;;;;5.10;99.90;;;;;;4968784;28;21062;-70
2022/01/24 10:31:30;;;;;;;;;;;5.20;99.90;;;;;;4986095;28;21130;-69
2022/01/24 10:34:01;;;;;;;;;;;5.30;99.90;;;;;;4986097;28;21144;-69
2022/01/24 10:36:33;;;;;;;;;;;5.40;99.90;;;;;;4985818;28;20209;-69
2022/01/24 10:39:28;;;;;;;;;;;5.50;99.90;;;;;;4985244;28;20052;-69
2022/01/24 10:44:59;;;;;;;;;;;5.60;99.90;;;;;;4980484;28;21071;-70
2022/01/24 10:47:29;;;;;;;;;;;5.70;99.90;;;;;;4989731;28;20170;-70
2022/01/24 10:49:57;;;;;;;;;;;5.90;99.90;;;;;;4988898;28;20060;-70
2022/01/24 10:52:25;;;;;;;;;;;6.00;99.90;;;;;;4988626;28;21495;-68
2022/01/24 10:54:53;;;;;;;;;;;6.40;99.90;;;;;;4988829;28;20058;-68
2022/01/24 10:57:22;;;;;;;;;;;8.90;99.90;;;;;;4988721;28;20058;-68
2022/01/24 10:59:50;;;;;;;;;;;12.30;99.90;;;;;;4989681;28;20060;-68
2022/01/24 11:02:18;;;;;;;;;;;15.10;99.90;;;;;;4988927;28;20169;-68
2022/01/24 11:04:45;;;;;;;;;;;17.10;99.90;;;;;;4988765;28;20149;-68
2022/01/24 11:07:13;;;;;;;;;;;17.90;99.90;;;;;;4988364;28;20060;-68
2022/01/24 11:09:41;;;;;;;;;;;19.00;99.90;;;;;;4999410;28;21139;-68
2022/01/24 11:12:11;;;;;;;;;;;19.40;99.90;;;;;;5000849;28;20083;-68
2022/01/24 11:14:40;;;;;;;;;;;19.90;99.90;;;;;;4987433;28;21127;-69
2022/01/24 11:17:08;;;;;;;;;;;20.60;99.90;;;;;;4991705;28;20067;-69
2022/01/24 11:19:40;;;;;;;;;;;21.00;99.90;;;;;;4991172;28;20202;-69
2022/01/24 11:22:18;;;;;;;;;;;21.40;99.90;;;;;;4992584;28;21118;-69
2022/01/24 11:24:52;;;;;;;;;;;21.70;99.90;;;;;;4992778;28;20060;-69
2022/01/24 11:27:19;;;;;;;;;;;21.70;99.90;;;;;;4992056;28;20068;-69
2022/01/24 11:29:49;;;;;;;;;;;22.30;99.90;;;;;;4992019;28;20060;-69
2022/01/24 11:32:19;;;;;;;;;;;22.60;99.90;;;;;;4992602;28;20067;-68
2022/01/24 11:34:49;;;;;;;;;;;22.40;99.90;;;;;;4992895;28;20154;-68
2022/01/24 11:37:31;;;;;;;;;;;22.30;99.90;;;;;;4992730;28;20300;-66
2022/01/24 11:39:59;;;;;;;;;;;21.60;99.90;;;;;;4992368;28;20060;-68
2022/01/24 11:42:29;;;;;;;;;;;20.90;99.90;;;;;;4992733;28;21135;-66
2022/01/24 11:45:04;;;;;;;;;;;20.50;99.90;;;;;;4992413;28;20074;-66
2022/01/24 11:47:32;;;;;;;;;;;20.60;99.90;;;;;;4992402;28;20100;-67
2022/01/24 11:49:59;;;;;;;;;;;20.40;99.90;;;;;;4991966;28;20254;-66
2022/01/24 11:52:32;;;;;;;;;;;20.80;99.90;;;;;;4992494;28;20181;-66
2022/01/24 11:55:14;;;;;;;;;;;19.90;99.90;;;;;;4992190;28;20060;-68
2022/01/24 11:57:42;;;;;;;;;;;19.50;99.90;;;;;;4992633;28;20940;-67
2022/01/24 12:00:19;;;;;;;;;;;19.60;99.90;;;;;;4989435;28;20059;-68
2022/01/24 12:02:49;;;;;;;;;;;19.50;99.90;;;;;;5007677;28;20068;-70
2022/01/24 12:05:16;;;;;;;;;;;19.90;99.90;;;;;;4991074;28;20094;-70
2022/01/24 12:07:44;;;;;;;;;;;19.90;99.90;;;;;;4991103;28;20149;-69
2022/01/24 12:10:35;;;;;;;;;;;19.80;99.90;;;;;;4991039;28;21095;-70
2022/01/24 12:13:03;;;;;;;;;;;20.20;99.90;;;;;;4991463;28;20052;-70
2022/01/24 12:16:04;;;;;;;;;;;21.40;99.90;;;;;;4991567;28;20059;-71
2022/01/24 12:18:59;;;;;;;;;;;21.00;99.90;;;;;;4991357;28;20060;-71
2022/01/24 12:21:27;;;;;;;;;;;21.30;99.90;;;;;;4991248;28;20068;-71
2022/01/24 12:23:55;;;;;;;;;;;20.60;99.90;;;;;;4990368;28;20060;-71
2022/01/24 12:26:25;;;;;;;;;;;20.70;99.90;;;;;;4991326;28;20069;-71
2022/01/24 12:28:53;;;;;;;;;;;21.10;99.90;;;;;;4989401;28;21161;-70
2022/01/24 12:31:22;;;;;;;;;;;21.50;99.90;;;;;;4991287;28;20058;-71
2022/01/24 12:34:00;;;;;;;;;;;21.80;99.90;;;;;;4990868;28;21141;-70
2022/01/24 12:36:48;;;;;;;;;;;21.80;99.90;;;;;;4991119;28;20153;-72
2022/01/24 12:39:18;;;;;;;;;;;22.00;99.90;;;;;;4990029;28;20068;-71
2022/01/24 12:41:47;;;;;;;;;;;21.90;99.90;;;;;;4991038;28;20066;-72
2022/01/24 12:46:56;;;;;;;;;;;22.70;99.90;;;;;;4988338;28;20086;-71
2022/01/24 12:49:27;;;;;;;;;;;23.30;99.90;;;;;;4989733;28;20051;-72
2022/01/24 12:51:54;;;;;;;;;;;22.90;99.90;;;;;;4990902;28;20153;-71
2022/01/24 12:54:28;;;;;;;;;;;22.00;99.90;;;;;;4990140;28;20069;-72
2022/01/24 12:56:58;;;;;;;;;;;22.40;99.90;;;;;;4990629;28;20058;-72
2022/01/24 12:59:25;;;;;;;;;;;23.20;99.90;;;;;;4989788;28;21006;-72
2022/01/24 13:01:56;;;;;;;;;;;22.90;99.90;;;;;;4990524;28;20060;-72
2022/01/24 13:04:33;;;;;;;;;;;24.00;99.90;;;;;;4990334;28;21184;-72
2022/01/24 13:07:00;;;;;;;;;;;23.90;99.90;;;;;;4990597;28;20179;-72
2022/01/24 13:09:27;;;;;;;;;;;24.60;99.90;;;;;;4989825;28;21125;-72
2022/01/24 13:11:57;;;;;;;;;;;23.50;99.90;;;;;;4990597;28;21005;-72
2022/01/24 13:14:29;;;;;;;;;;;22.10;99.90;;;;;;4990308;28;20059;-71
2022/01/24 13:22:36;;;;;;;;;;;18.20;99.90;;;;;;4990570;28;20090;-71
2022/01/24 13:25:13;;;;;;;;;;;20.50;99.90;;;;;;4990546;28;20161;-71
2022/01/24 13:27:42;;;;;;;;;;;21.80;99.90;;;;;;4990370;28;20133;-71
2022/01/24 13:30:09;;;;;;;;;;;22.70;99.90;;;;;;4989911;28;21104;-72
2022/01/24 13:32:50;;;;;;;;;;;23.40;99.90;;;;;;4990502;28;20169;-72
2022/01/24 13:35:26;;;;;;;;;;;23.10;99.90;;;;;;4990027;28;21213;-71
2022/01/24 13:37:55;;;;;;;;;;;22.30;99.90;;;;;;4990082;28;21124;-71
2022/01/24 13:40:33;;;;;;;;;;;22.00;99.90;;;;;;4989478;28;20077;-72
2022/01/24 13:43:00;;;;;;;;;;;22.00;99.90;;;;;;4990610;28;20060;-71
2022/01/24 13:45:27;;;;;;;;;;;23.50;99.90;;;;;;4990304;28;20069;-71
2022/01/24 13:47:58;;;;;;;;;;;23.40;99.90;;;;;;4989405;28;20265;-71
2022/01/24 13:50:28;;;;;;;;;;;24.30;99.90;;;;;;4989221;28;20060;-70
2022/01/24 13:52:55;;;;;;;;;;;23.50;99.90;;;;;;4989636;28;20067;-71
2022/01/24 13:55:24;;;;;;;;;;;23.10;99.90;;;;;;4989835;28;21099;-70
2022/01/24 13:57:52;;;;;;;;;;;22.10;99.90;;;;;;4988431;28;21272;-71
2022/01/24 14:00:22;;;;;;;;;;;22.00;99.90;;;;;;4988469;28;20083;-70
2022/01/24 14:02:50;;;;;;;;;;;22.30;99.90;;;;;;4983133;28;20141;-68
2022/01/24 14:05:18;;;;;;;;;;;22.40;99.90;;;;;;4987096;28;20304;-68
2022/01/24 14:07:46;;;;;;;;;;;21.70;99.90;;;;;;4989197;28;21113;-70
2022/01/24 14:10:15;;;;;;;;;;;21.40;99.90;;;;;;4989031;28;20091;-69
2022/01/24 14:12:50;;;;;;;;;;;20.90;99.90;;;;;;4989496;28;20283;-70
2022/01/24 14:15:21;;;;;;;;;;;21.10;99.90;;;;;;4989443;28;20058;-70
2022/01/24 14:18:19;;;;;;;;;;;21.00;99.90;;;;;;4989379;28;20113;-70
2022/01/24 14:20:47;;;;;;;;;;;21.50;99.90;;;;;;4988960;28;21134;-70
2022/01/24 14:23:23;;;;;;;;;;;22.00;99.90;;;;;;4989110;28;20109;-70
2022/01/24 14:25:50;;;;;;;;;;;22.00;99.90;;;;;;4990069;28;20066;-70
2022/01/24 14:28:18;;;;;;;;;;;20.70;99.90;;;;;;4987773;28;21187;-70
2022/01/24 14:30:47;;;;;;;;;;;19.80;99.90;;;;;;4983608;28;20170;-70
2022/01/24 14:33:15;;;;;;;;;;;19.90;99.90;;;;;;4988576;28;21167;-69
2022/01/24 14:35:49;;;;;;;;;;;19.60;99.90;;;;;;4989596;28;21053;-69
2022/01/24 14:38:18;;;;;;;;;;;19.10;99.90;;;;;;4985261;28;21020;-69
2022/01/24 14:40:49;;;;;;;;;;;18.90;99.90;;;;;;5000686;28;20077;-69
2022/01/24 14:46:05;;;;;;;;;;;18.20;99.90;;;;;;4988496;28;20064;-69
2022/01/24 14:48:32;;;;;;;;;;;18.50;99.90;;;;;;4989298;28;20067;-70
2022/01/24 14:50:59;;;;;;;;;;;18.90;99.90;;;;;;4988299;28;20999;-70
2022/01/24 14:53:29;;;;;;;;;;;18.50;99.90;;;;;;4986338;28;21096;-69
2022/01/24 14:55:58;;;;;;;;;;;18.30;99.90;;;;;;4980994;28;20052;-69
2022/01/24 14:58:25;;;;;;;;;;;17.70;99.90;;;;;;4988206;28;20069;-69
2022/01/24 15:00:52;;;;;;;;;;;17.40;99.90;;;;;;4987285;28;20075;-70
2022/01/24 15:03:19;;;;;;;;;;;16.90;99.90;;;;;;4989177;28;20060;-72
2022/01/24 15:05:47;;;;;;;;;;;17.30;99.90;;;;;;4988541;28;20150;-72
2022/01/24 15:08:14;;;;;;;;;;;17.30;99.90;;;;;;4988731;28;20091;-72
2022/01/24 15:10:41;;;;;;;;;;;17.00;99.90;;;;;;4988517;28;20152;-70
2022/01/24 15:13:11;;;;;;;;;;;16.50;99.90;;;;;;4988843;28;20073;-69
2022/01/24 15:15:43;;;;;;;;;;;16.20;99.90;;;;;;4989217;28;20098;-69
2022/01/24 15:26:24;;;;;;;;;;;14.90;99.90;;;;;;4989032;28;21140;-69
2022/01/24 15:28:52;;;;;;;;;;;14.90;99.90;;;;;;4987841;28;20080;-69
2022/01/24 15:31:19;;;;;;;;;;;14.80;99.90;;;;;;4988597;28;20061;-76
2022/01/24 15:33:47;;;;;;;;;;;14.10;99.90;;;;;;4988027;28;20133;-69
2022/01/24 15:36:14;;;;;;;;;;;13.60;99.90;;;;;;4988913;28;20056;-69
2022/01/24 15:38:41;;;;;;;;;;;13.30;99.90;;;;;;4988412;28;20154;-68
2022/01/24 15:41:08;;;;;;;;;;;12.80;99.90;;;;;;4988345;28;20492;-69
2022/01/24 15:43:57;;;;;;;;;;;11.80;99.90;;;;;;4988377;28;20158;-69
2022/01/24 15:49:15;;;;;;;;;;;10.30;99.90;;;;;;4975673;28;20067;-69
2022/01/24 15:51:42;;;;;;;;;;;9.50;99.90;;;;;;4988573;28;20083;-70
2022/01/24 15:54:11;;;;;;;;;;;8.70;99.90;;;;;;4987932;28;20060;-69
2022/01/24 15:59:23;;;;;;;;;;;7.30;99.90;;;;;;4987208;28;20047;-69
2022/01/24 16:01:52;;;;;;;;;;;7.10;99.90;;;;;;4988342;28;20060;-69
2022/01/24 16:04:19;;;;;;;;;;;7.00;99.90;;;;;;4989350;28;20068;-69
2022/01/24 16:06:46;;;;;;;;;;;6.80;99.90;;;;;;4991338;28;20132;-70
2022/01/24 16:09:13;;;;;;;;;;;6.50;99.90;;;;;;4990437;28;20059;-68
2022/01/24 16:11:40;;;;;;;;;;;6.20;99.90;;;;;;4990438;28;20069;-69
2022/01/24 16:14:09;;;;;;;;;;;5.90;99.90;;;;;;4990536;28;20077;-70
2022/01/24 16:16:36;;;;;;;;;;;5.70;99.90;;;;;;4992656;28;20148;-69
2022/01/24 16:19:06;;;;;;;;;;;5.50;99.90;;;;;;4990264;28;21074;-68